• Join FlightAware (Why Join?)
  • Login
  • US Flag 
06:46AM EST


 

Airport Tracker/Info


-or-


 

Live Flight TrackerFlight Track Log ✈ SIL4017 ✈ 07-Jul-2012 ✈ KFLL - MYEH / ELH

Flight Track Log - Related Links

Times and Time Zones

All times are in EDT time to prevent confusion due to time zone crossing. See the SIL4017 flight status page for this flight to view local times or setup timezone preferences in your user account.

Time Position Orientation Groundspeed Altitude Reporting Facility
EDT Latitude Longitude Course Direction KTS MPH feet Rate Location/Type
08:54AM 26.0750 -80.1367 99° East 147 169 600  Level Miami Center
08:59AM 26.0403 -79.9000 101° East 177 204 5,900 1,080 Climbing Miami Center
09:00AM 26.0311 -79.8464 97° East 177 204 7,000 1,020 Climbing Miami Center
09:01AM 26.0258 -79.7978 99° East 177 204 8,000 960 Climbing Miami Center
09:02AM 26.0183 -79.7444 97° East 172 198 9,000 960 Climbing Miami Center
09:03AM 26.0131 -79.6933 98° East 167 192 10,000 900 Climbing Miami Center
09:04AM 26.0058 -79.6378 99° East 167 192 10,900 900 Climbing Miami Center
09:05AM 25.9986 -79.5844 101° East 167 192 11,800 840 Climbing Miami Center
09:06AM 25.9892 -79.5311 101° East 167 192 12,600 780 Climbing Miami Center
09:07AM 25.9794 -79.4778 101° East 167 192 13,400 780 Climbing Miami Center
09:08AM 25.9700 -79.4219 96° East 173 199 14,200 720 Climbing Miami Center
09:09AM 25.9647 -79.3664 106° East 173 199 14,900 660 Climbing Miami Center
09:10AM 25.9511 -79.3131 101° East 178 205 15,600 600 Climbing Miami Center
09:11AM 25.9417 -79.2575 101° East 183 211 16,200 600 Climbing Miami Center
09:12AM 25.9319 -79.2017 98° East 183 211 16,800 360 Climbing Miami Center
09:13AM 25.9244 -79.1439 101° East 183 211 17,000  Climbing Miami Center
09:14AM 25.9131 -79.0767 102° East 196 226 16,900 -60 Descending Miami Center
09:15AM 25.8994 -79.0072 102° East 217 250 16,900  Level Miami Center
09:16AM 25.8839 -78.9258 104° East 231 266 17,000  Climbing Miami Center
09:17AM 25.8681 -78.8542 99° East 237 273 17,000  Level Miami Center
09:18AM 25.8567 -78.7778 101° East 244 281 17,000  Level Miami Center
09:19AM 25.8431 -78.7014 100° East 244 281 17,000  Level Miami Center
09:20AM 25.8314 -78.6250 104° East 244 281 17,000  Level Miami Center
09:21AM 25.8136 -78.5486 98° East 244 281 17,000  Level Miami Center
09:22AM 25.8039 -78.4722 101° East 244 281 17,000  Level Miami Center
09:23AM 25.7900 -78.3936 101° East 244 281 17,000 -240 Level Miami Center
09:24AM 25.7783 -78.3264 102° East 244 281 16,600 -480 Descending Miami Center
09:25AM 25.7625 -78.2433 102° East 255 293 16,100 -900 Descending Miami Center
09:26AM 25.7464 -78.1578 101° East 269 310 14,900 -1,380 Descending Miami Center
09:27AM 25.7325 -78.0792 100° East 269 310 13,400 -1,500 Descending Miami Center
09:28AM 25.7206 -78.0028 102° East 263 303 11,900 -1,500 Descending Miami Center
09:29AM 25.7064 -77.9314 100° East 249 287 10,400 -1,440 Descending Miami Center
09:30AM 25.6944 -77.8572 102° East 239 275 9,100 -960 Descending Miami Center
09:31AM 25.6803 -77.7858 100° East 233 268 8,500 -660 Descending Miami Center
09:32AM 25.6681 -77.7119 101° East 238 274 7,800 -720 Descending Miami Center
09:33AM 25.6539 -77.6311 101° East 250 288 7,100 -720 Descending Miami Center